Time;durP1;ratioP1;P1;durP2;ratioP2;P2;SDS_P1;SDS_P2;PMS_P1;PMS_P2;Temp;Humidity;BMP_temperature;BMP_pressure;BME280_temperature;BME280_humidity;BME280_pressure;Samples;Min_cycle;Max_cycle;Signal;HPM_P1;HPM_P2
2020/07/25 00:00:50;;;;;;;4.3;3.400001;;;;;;;17.4;74.64258;95056.84;;;;
2020/07/25 00:01:50;;;;;;;4.3;3.400001;;;;;;;17.4;74.64258;95056.84;;;;
2020/07/25 00:02:51;;;;;;;4.3;3.400001;;;;;;;17.4;74.64258;95056.84;;;;
2020/07/25 00:03:51;;;;;;;4.3;3.400001;;;;;;;17.4;74.64258;95056.84;;;;
2020/07/25 00:04:52;;;;;;;4.3;3.400001;;;;;;;17.4;74.64258;95056.84;;;;
2020/07/25 00:05:52;;;;;;;4.3;3.400001;;;;;;;17.4;74.64258;95056.84;;;;
2020/07/25 00:06:53;;;;;;;4.3;3.400001;;;;;;;17.4;74.64258;95056.84;;;;
2020/07/25 00:07:53;;;;;;;4.3;3.400001;;;;;;;17.4;74.64258;95056.84;;;;
2020/07/25 00:08:54;;;;;;;4.3;3.400001;;;;;;;17.4;74.64258;95056.84;;;;
2020/07/25 00:09:54;;;;;;;4.3;3.400001;;;;;;;17.4;74.64258;95056.84;;;;
2020/07/25 00:10:55;;;;;;;4.3;3.400001;;;;;;;17.4;74.64258;95056.84;;;;
2020/07/25 00:11:55;;;;;;;3.9;3.5;;;;;;;17.34;74.58691;95069.45;;;;
2020/07/25 00:12:56;;;;;;;3.9;3.5;;;;;;;17.34;74.58691;95069.45;;;;
2020/07/25 00:13:56;;;;;;;3.9;3.5;;;;;;;17.34;74.58691;95069.45;;;;
2020/07/25 00:14:57;;;;;;;3.9;3.5;;;;;;;17.34;74.58691;95069.45;;;;
2020/07/25 00:15:57;;;;;;;3.9;3.5;;;;;;;17.34;74.58691;95069.45;;;;
2020/07/25 00:16:58;;;;;;;3.9;3.5;;;;;;;17.34;74.58691;95069.45;;;;
2020/07/25 00:17:58;;;;;;;3.9;3.5;;;;;;;17.34;74.58691;95069.45;;;;
2020/07/25 00:18:59;;;;;;;3.9;3.5;;;;;;;17.34;74.58691;95069.45;;;;
2020/07/25 00:19:59;;;;;;;3.9;3.5;;;;;;;17.34;74.58691;95069.45;;;;
2020/07/25 00:21:00;;;;;;;3.9;3.5;;;;;;;17.34;74.58691;95069.45;;;;
2020/07/25 00:22:00;;;;;;;3.5;3.2;;;;;;;17.32;74.82422;95069.7;;;;
2020/07/25 00:23:01;;;;;;;3.5;3.2;;;;;;;17.32;74.82422;95069.7;;;;
2020/07/25 00:24:01;;;;;;;3.5;3.2;;;;;;;17.32;74.82422;95069.7;;;;
2020/07/25 00:25:02;;;;;;;3.5;3.2;;;;;;;17.32;74.82422;95069.7;;;;
2020/07/25 00:26:02;;;;;;;3.5;3.2;;;;;;;17.32;74.82422;95069.7;;;;
2020/07/25 00:27:02;;;;;;;3.5;3.2;;;;;;;17.32;74.82422;95069.7;;;;
2020/07/25 00:28:03;;;;;;;3.5;3.2;;;;;;;17.32;74.82422;95069.7;;;;
2020/07/25 00:29:04;;;;;;;3.5;3.2;;;;;;;17.32;74.82422;95069.7;;;;
2020/07/25 00:30:04;;;;;;;3.5;3.2;;;;;;;17.32;74.82422;95069.7;;;;
2020/07/25 00:31:05;;;;;;;3.5;3.2;;;;;;;17.32;74.82422;95069.7;;;;
2020/07/25 00:32:05;;;;;;;3.5;3.2;;;;;;;17.32;74.82422;95069.7;;;;
2020/07/25 00:33:05;;;;;;;3.1;2.8;;;;;;;17.26;74.92188;95064.58;;;;
2020/07/25 00:34:06;;;;;;;3.1;2.8;;;;;;;17.26;74.92188;95064.58;;;;
2020/07/25 00:35:07;;;;;;;3.1;2.8;;;;;;;17.26;74.92188;95064.58;;;;
2020/07/25 00:36:07;;;;;;;3.1;2.8;;;;;;;17.26;74.92188;95064.58;;;;
2020/07/25 00:37:08;;;;;;;3.1;2.8;;;;;;;17.26;74.92188;95064.58;;;;
2020/07/25 00:38:08;;;;;;;3.1;2.8;;;;;;;17.26;74.92188;95064.58;;;;
2020/07/25 00:39:09;;;;;;;3.1;2.8;;;;;;;17.26;74.92188;95064.58;;;;
2020/07/25 00:40:09;;;;;;;3.1;2.8;;;;;;;17.26;74.92188;95064.58;;;;
2020/07/25 00:41:10;;;;;;;3.1;2.8;;;;;;;17.26;74.92188;95064.58;;;;
2020/07/25 00:42:10;;;;;;;3.1;2.8;;;;;;;17.26;74.92188;95064.58;;;;
2020/07/25 00:43:11;;;;;;;3.5;3.2;;;;;;;17.16;75.10156;95061.77;;;;
2020/07/25 00:44:11;;;;;;;3.5;3.2;;;;;;;17.16;75.10156;95061.77;;;;
2020/07/25 00:45:12;;;;;;;3.5;3.2;;;;;;;17.16;75.10156;95061.77;;;;
2020/07/25 00:46:13;;;;;;;3.5;3.2;;;;;;;17.16;75.10156;95061.77;;;;
2020/07/25 00:47:13;;;;;;;3.5;3.2;;;;;;;17.16;75.10156;95061.77;;;;
2020/07/25 00:48:14;;;;;;;3.5;3.2;;;;;;;17.16;75.10156;95061.77;;;;
2020/07/25 00:49:14;;;;;;;3.5;3.2;;;;;;;17.16;75.10156;95061.77;;;;
2020/07/25 00:50:15;;;;;;;3.5;3.2;;;;;;;17.16;75.10156;95061.77;;;;
2020/07/25 00:51:15;;;;;;;3.5;3.2;;;;;;;17.16;75.10156;95061.77;;;;
2020/07/25 00:52:16;;;;;;;3.5;3.2;;;;;;;17.16;75.10156;95061.77;;;;
2020/07/25 00:53:16;;;;;;;3.5;3.2;;;;;;;17.16;75.10156;95061.77;;;;
2020/07/25 00:54:17;;;;;;;3.1;2.8;;;;;;;17.22;75.21973;95063.37;;;;
2020/07/25 00:55:17;;;;;;;3.1;2.8;;;;;;;17.22;75.21973;95063.37;;;;
2020/07/25 00:56:18;;;;;;;3.1;2.8;;;;;;;17.22;75.21973;95063.37;;;;
2020/07/25 00:57:18;;;;;;;3.1;2.8;;;;;;;17.22;75.21973;95063.37;;;;
2020/07/25 00:58:19;;;;;;;3.1;2.8;;;;;;;17.22;75.21973;95063.37;;;;
2020/07/25 00:59:19;;;;;;;3.1;2.8;;;;;;;17.22;75.21973;95063.37;;;;
2020/07/25 01:00:20;;;;;;;3.1;2.8;;;;;;;17.22;75.21973;95063.37;;;;
2020/07/25 01:01:20;;;;;;;3.1;2.8;;;;;;;17.22;75.21973;95063.37;;;;
2020/07/25 01:02:21;;;;;;;3.1;2.8;;;;;;;17.22;75.21973;95063.37;;;;
2020/07/25 01:03:21;;;;;;;3.1;2.8;;;;;;;17.22;75.21973;95063.37;;;;
2020/07/25 01:04:22;;;;;;;3.45;2.7;;;;;;;17.21;75.25;95061.89;;;;
2020/07/25 01:05:22;;;;;;;3.45;2.7;;;;;;;17.21;75.25;95061.89;;;;
2020/07/25 01:06:23;;;;;;;3.45;2.7;;;;;;;17.21;75.25;95061.89;;;;
2020/07/25 01:07:23;;;;;;;3.45;2.7;;;;;;;17.21;75.25;95061.89;;;;
2020/07/25 01:08:24;;;;;;;3.45;2.7;;;;;;;17.21;75.25;95061.89;;;;
2020/07/25 01:09:24;;;;;;;3.45;2.7;;;;;;;17.21;75.25;95061.89;;;;
2020/07/25 01:10:25;;;;;;;3.45;2.7;;;;;;;17.21;75.25;95061.89;;;;
2020/07/25 01:11:25;;;;;;;3.45;2.7;;;;;;;17.21;75.25;95061.89;;;;
2020/07/25 01:12:26;;;;;;;3.45;2.7;;;;;;;17.21;75.25;95061.89;;;;
2020/07/25 01:13:26;;;;;;;3.45;2.7;;;;;;;17.21;75.25;95061.89;;;;
2020/07/25 01:14:27;;;;;;;3.45;2.7;;;;;;;17.21;75.25;95061.89;;;;
2020/07/25 01:15:27;;;;;;;2.85;2.5;;;;;;;17.28;75.05664;95062.8;;;;
2020/07/25 01:16:28;;;;;;;2.85;2.5;;;;;;;17.28;75.05664;95062.8;;;;
2020/07/25 01:17:28;;;;;;;2.85;2.5;;;;;;;17.28;75.05664;95062.8;;;;
2020/07/25 01:18:29;;;;;;;2.85;2.5;;;;;;;17.28;75.05664;95062.8;;;;
2020/07/25 01:19:29;;;;;;;2.85;2.5;;;;;;;17.28;75.05664;95062.8;;;;
2020/07/25 01:20:30;;;;;;;2.85;2.5;;;;;;;17.28;75.05664;95062.8;;;;
2020/07/25 01:21:30;;;;;;;2.85;2.5;;;;;;;17.28;75.05664;95062.8;;;;
2020/07/25 01:22:31;;;;;;;2.85;2.5;;;;;;;17.28;75.05664;95062.8;;;;
2020/07/25 01:23:31;;;;;;;2.85;2.5;;;;;;;17.28;75.05664;95062.8;;;;
2020/07/25 01:24:32;;;;;;;2.85;2.5;;;;;;;17.28;75.05664;95062.8;;;;
2020/07/25 01:25:32;;;;;;;3.15;2.75;;;;;;;17.27;75.11914;95068.95;;;;
2020/07/25 01:26:33;;;;;;;3.15;2.75;;;;;;;17.27;75.11914;95068.95;;;;
2020/07/25 01:27:33;;;;;;;3.15;2.75;;;;;;;17.27;75.11914;95068.95;;;;
2020/07/25 01:28:34;;;;;;;3.15;2.75;;;;;;;17.27;75.11914;95068.95;;;;
2020/07/25 01:29:34;;;;;;;3.15;2.75;;;;;;;17.27;75.11914;95068.95;;;;
2020/07/25 01:30:35;;;;;;;3.15;2.75;;;;;;;17.27;75.11914;95068.95;;;;
2020/07/25 01:31:35;;;;;;;3.15;2.75;;;;;;;17.27;75.11914;95068.95;;;;
2020/07/25 01:32:36;;;;;;;3.15;2.75;;;;;;;17.27;75.11914;95068.95;;;;
2020/07/25 01:33:36;;;;;;;3.15;2.75;;;;;;;17.27;75.11914;95068.95;;;;
2020/07/25 01:34:37;;;;;;;3.15;2.75;;;;;;;17.27;75.11914;95068.95;;;;
2020/07/25 01:35:37;;;;;;;3.15;2.75;;;;;;;17.27;75.11914;95068.95;;;;
2020/07/25 01:36:38;;;;;;;2.900001;2.7;;;;;;;17.3;75.00586;95069.2;;;;
2020/07/25 01:37:38;;;;;;;2.900001;2.7;;;;;;;17.3;75.00586;95069.2;;;;
2020/07/25 01:38:38;;;;;;;2.900001;2.7;;;;;;;17.3;75.00586;95069.2;;;;
2020/07/25 01:39:39;;;;;;;2.900001;2.7;;;;;;;17.3;75.00586;95069.2;;;;
2020/07/25 01:40:39;;;;;;;2.900001;2.7;;;;;;;17.3;75.00586;95069.2;;;;
2020/07/25 01:41:40;;;;;;;2.900001;2.7;;;;;;;17.3;75.00586;95069.2;;;;
2020/07/25 01:42:40;;;;;;;2.900001;2.7;;;;;;;17.3;75.00586;95069.2;;;;
2020/07/25 01:43:41;;;;;;;2.900001;2.7;;;;;;;17.3;75.00586;95069.2;;;;
2020/07/25 01:44:41;;;;;;;2.900001;2.7;;;;;;;17.3;75.00586;95069.2;;;;
2020/07/25 01:45:42;;;;;;;2.900001;2.7;;;;;;;17.3;75.00586;95069.2;;;;
2020/07/25 01:46:42;;;;;;;3.45;2.7;;;;;;;17.27;74.91211;95074;;;;
2020/07/25 01:47:43;;;;;;;3.45;2.7;;;;;;;17.27;74.91211;95074;;;;
2020/07/25 01:48:43;;;;;;;3.45;2.7;;;;;;;17.27;74.91211;95074;;;;
2020/07/25 01:49:44;;;;;;;3.45;2.7;;;;;;;17.27;74.91211;95074;;;;
2020/07/25 01:50:44;;;;;;;3.45;2.7;;;;;;;17.27;74.91211;95074;;;;
2020/07/25 01:51:45;;;;;;;3.45;2.7;;;;;;;17.27;74.91211;95074;;;;
2020/07/25 01:52:45;;;;;;;3.45;2.7;;;;;;;17.27;74.91211;95074;;;;
2020/07/25 01:53:46;;;;;;;3.45;2.7;;;;;;;17.27;74.91211;95074;;;;
2020/07/25 01:54:46;;;;;;;3.45;2.7;;;;;;;17.27;74.91211;95074;;;;
2020/07/25 01:55:47;;;;;;;3.45;2.7;;;;;;;17.27;74.91211;95074;;;;
2020/07/25 01:56:47;;;;;;;3.45;2.7;;;;;;;17.27;74.91211;95074;;;;
2020/07/25 01:57:48;;;;;;;2.7;2.4;;;;;;;17.19;75.14941;95076.76;;;;
2020/07/25 01:58:48;;;;;;;2.7;2.4;;;;;;;17.19;75.14941;95076.76;;;;
2020/07/25 01:59:49;;;;;;;2.7;2.4;;;;;;;17.19;75.14941;95076.76;;;;
2020/07/25 02:00:49;;;;;;;2.7;2.4;;;;;;;17.19;75.14941;95076.76;;;;
2020/07/25 02:01:49;;;;;;;2.7;2.4;;;;;;;17.19;75.14941;95076.76;;;;
2020/07/25 02:02:50;;;;;;;2.7;2.4;;;;;;;17.19;75.14941;95076.76;;;;
2020/07/25 02:03:50;;;;;;;2.7;2.4;;;;;;;17.19;75.14941;95076.76;;;;
2020/07/25 02:04:51;;;;;;;2.7;2.4;;;;;;;17.19;75.14941;95076.76;;;;
2020/07/25 02:05:51;;;;;;;2.7;2.4;;;;;;;17.19;75.14941;95076.76;;;;
2020/07/25 02:06:52;;;;;;;2.7;2.4;;;;;;;17.19;75.14941;95076.76;;;;
2020/07/25 02:07:52;;;;;;;3.7;2.65;;;;;;;17.13;75.43359;95078.83;;;;
2020/07/25 02:08:53;;;;;;;3.7;2.65;;;;;;;17.13;75.43359;95078.83;;;;
2020/07/25 02:09:53;;;;;;;3.7;2.65;;;;;;;17.13;75.43359;95078.83;;;;
2020/07/25 02:10:54;;;;;;;3.7;2.65;;;;;;;17.13;75.43359;95078.83;;;;
2020/07/25 02:11:54;;;;;;;3.7;2.65;;;;;;;17.13;75.43359;95078.83;;;;
2020/07/25 02:12:55;;;;;;;3.7;2.65;;;;;;;17.13;75.43359;95078.83;;;;
2020/07/25 02:13:55;;;;;;;3.7;2.65;;;;;;;17.13;75.43359;95078.83;;;;
2020/07/25 02:14:56;;;;;;;3.7;2.65;;;;;;;17.13;75.43359;95078.83;;;;
2020/07/25 02:15:56;;;;;;;3.7;2.65;;;;;;;17.13;75.43359;95078.83;;;;
2020/07/25 02:16:57;;;;;;;3.7;2.65;;;;;;;17.13;75.43359;95078.83;;;;
2020/07/25 02:17:57;;;;;;;3.7;2.65;;;;;;;17.13;75.43359;95078.83;;;;
2020/07/25 02:18:58;;;;;;;2.900001;2.7;;;;;;;17.11;75.55859;95070.94;;;;
2020/07/25 02:19:58;;;;;;;2.900001;2.7;;;;;;;17.11;75.55859;95070.94;;;;
2020/07/25 02:20:59;;;;;;;2.900001;2.7;;;;;;;17.11;75.55859;95070.94;;;;
2020/07/25 02:21:59;;;;;;;2.900001;2.7;;;;;;;17.11;75.55859;95070.94;;;;
2020/07/25 02:23:00;;;;;;;2.900001;2.7;;;;;;;17.11;75.55859;95070.94;;;;
2020/07/25 02:24:00;;;;;;;2.900001;2.7;;;;;;;17.11;75.55859;95070.94;;;;
2020/07/25 02:25:01;;;;;;;2.900001;2.7;;;;;;;17.11;75.55859;95070.94;;;;
2020/07/25 02:26:01;;;;;;;2.900001;2.7;;;;;;;17.11;75.55859;95070.94;;;;
2020/07/25 02:27:02;;;;;;;2.900001;2.7;;;;;;;17.11;75.55859;95070.94;;;;
2020/07/25 02:28:02;;;;;;;2.900001;2.7;;;;;;;17.11;75.55859;95070.94;;;;
2020/07/25 02:29:02;;;;;;;3.45;2.7;;;;;;;17.03;75.68555;95072.08;;;;
2020/07/25 02:30:03;;;;;;;3.45;2.7;;;;;;;17.03;75.68555;95072.08;;;;
2020/07/25 02:31:03;;;;;;;3.45;2.7;;;;;;;17.03;75.68555;95072.08;;;;
2020/07/25 02:32:04;;;;;;;3.45;2.7;;;;;;;17.03;75.68555;95072.08;;;;
2020/07/25 02:33:04;;;;;;;3.45;2.7;;;;;;;17.03;75.68555;95072.08;;;;
2020/07/25 02:34:05;;;;;;;3.45;2.7;;;;;;;17.03;75.68555;95072.08;;;;
2020/07/25 02:35:05;;;;;;;3.45;2.7;;;;;;;17.03;75.68555;95072.08;;;;
2020/07/25 02:36:06;;;;;;;3.45;2.7;;;;;;;17.03;75.68555;95072.08;;;;
2020/07/25 02:37:06;;;;;;;3.45;2.7;;;;;;;17.03;75.68555;95072.08;;;;
2020/07/25 02:38:07;;;;;;;3.45;2.7;;;;;;;17.03;75.68555;95072.08;;;;
2020/07/25 02:39:07;;;;;;;3.45;2.7;;;;;;;17.03;75.68555;95072.08;;;;
2020/07/25 02:40:08;;;;;;;3;2.7;;;;;;;17.01;75.98633;95075.64;;;;
2020/07/25 02:41:08;;;;;;;3;2.7;;;;;;;17.01;75.98633;95075.64;;;;
2020/07/25 02:42:09;;;;;;;3;2.7;;;;;;;17.01;75.98633;95075.64;;;;
2020/07/25 02:43:09;;;;;;;3;2.7;;;;;;;17.01;75.98633;95075.64;;;;
2020/07/25 02:44:10;;;;;;;3;2.7;;;;;;;17.01;75.98633;95075.64;;;;
2020/07/25 02:45:10;;;;;;;3;2.7;;;;;;;17.01;75.98633;95075.64;;;;
2020/07/25 02:46:11;;;;;;;3;2.7;;;;;;;17.01;75.98633;95075.64;;;;
2020/07/25 02:47:11;;;;;;;3;2.7;;;;;;;17.01;75.98633;95075.64;;;;
2020/07/25 02:48:12;;;;;;;3;2.7;;;;;;;17.01;75.98633;95075.64;;;;
2020/07/25 02:49:12;;;;;;;3;2.7;;;;;;;17.01;75.98633;95075.64;;;;
2020/07/25 02:50:13;;;;;;;2.9;2.65;;;;;;;16.96;76.30469;95080.58;;;;
2020/07/25 02:51:13;;;;;;;2.9;2.65;;;;;;;16.96;76.30469;95080.58;;;;
2020/07/25 02:52:14;;;;;;;2.9;2.65;;;;;;;16.96;76.30469;95080.58;;;;
2020/07/25 02:53:14;;;;;;;2.9;2.65;;;;;;;16.96;76.30469;95080.58;;;;
2020/07/25 02:54:15;;;;;;;2.9;2.65;;;;;;;16.96;76.30469;95080.58;;;;
2020/07/25 02:55:15;;;;;;;2.9;2.65;;;;;;;16.96;76.30469;95080.58;;;;
2020/07/25 02:56:16;;;;;;;2.9;2.65;;;;;;;16.96;76.30469;95080.58;;;;
2020/07/25 02:57:16;;;;;;;2.9;2.65;;;;;;;16.96;76.30469;95080.58;;;;
2020/07/25 02:58:17;;;;;;;2.9;2.65;;;;;;;16.96;76.30469;95080.58;;;;
2020/07/25 02:59:17;;;;;;;2.9;2.65;;;;;;;16.96;76.30469;95080.58;;;;
2020/07/25 03:00:18;;;;;;;2.9;2.65;;;;;;;16.96;76.30469;95080.58;;;;
2020/07/25 03:01:18;;;;;;;3.6;3;;;;;;;17.04;76.5459;95076.43;;;;
2020/07/25 03:02:19;;;;;;;3.6;3;;;;;;;17.04;76.5459;95076.43;;;;
2020/07/25 03:03:19;;;;;;;3.6;3;;;;;;;17.04;76.5459;95076.43;;;;
2020/07/25 03:04:20;;;;;;;3.6;3;;;;;;;17.04;76.5459;95076.43;;;;
2020/07/25 03:05:20;;;;;;;3.6;3;;;;;;;17.04;76.5459;95076.43;;;;
2020/07/25 03:06:21;;;;;;;3.6;3;;;;;;;17.04;76.5459;95076.43;;;;
2020/07/25 03:07:21;;;;;;;3.6;3;;;;;;;17.04;76.5459;95076.43;;;;
2020/07/25 03:08:22;;;;;;;3.6;3;;;;;;;17.04;76.5459;95076.43;;;;
2020/07/25 03:09:22;;;;;;;3.6;3;;;;;;;17.04;76.5459;95076.43;;;;
2020/07/25 03:10:23;;;;;;;3.6;3;;;;;;;17.04;76.5459;95076.43;;;;
2020/07/25 03:11:23;;;;;;;3.25;2.9;;;;;;;17.04;76.9043;95079.03;;;;
2020/07/25 03:12:24;;;;;;;3.25;2.9;;;;;;;17.04;76.9043;95079.03;;;;
2020/07/25 03:13:24;;;;;;;3.25;2.9;;;;;;;17.04;76.9043;95079.03;;;;
2020/07/25 03:14:24;;;;;;;3.25;2.9;;;;;;;17.04;76.9043;95079.03;;;;
2020/07/25 03:15:25;;;;;;;3.25;2.9;;;;;;;17.04;76.9043;95079.03;;;;
2020/07/25 03:16:25;;;;;;;3.25;2.9;;;;;;;17.04;76.9043;95079.03;;;;
2020/07/25 03:17:26;;;;;;;3.25;2.9;;;;;;;17.04;76.9043;95079.03;;;;
2020/07/25 03:18:26;;;;;;;3.25;2.9;;;;;;;17.04;76.9043;95079.03;;;;
2020/07/25 03:19:27;;;;;;;3.25;2.9;;;;;;;17.04;76.9043;95079.03;;;;
2020/07/25 03:20:27;;;;;;;3.25;2.9;;;;;;;17.04;76.9043;95079.03;;;;
2020/07/25 03:21:28;;;;;;;3.25;2.9;;;;;;;17.04;76.9043;95079.03;;;;
2020/07/25 03:22:29;;;;;;;4.25;2.95;;;;;;;17.11;77.1543;95067.8;;;;
2020/07/25 03:23:29;;;;;;;4.25;2.95;;;;;;;17.11;77.1543;95067.8;;;;
2020/07/25 03:24:30;;;;;;;4.25;2.95;;;;;;;17.11;77.1543;95067.8;;;;
2020/07/25 03:25:30;;;;;;;4.25;2.95;;;;;;;17.11;77.1543;95067.8;;;;
2020/07/25 03:26:31;;;;;;;4.25;2.95;;;;;;;17.11;77.1543;95067.8;;;;
2020/07/25 03:27:31;;;;;;;4.25;2.95;;;;;;;17.11;77.1543;95067.8;;;;
2020/07/25 03:28:32;;;;;;;4.25;2.95;;;;;;;17.11;77.1543;95067.8;;;;
2020/07/25 03:29:32;;;;;;;4.25;2.95;;;;;;;17.11;77.1543;95067.8;;;;
2020/07/25 03:30:33;;;;;;;4.25;2.95;;;;;;;17.11;77.1543;95067.8;;;;
2020/07/25 03:31:33;;;;;;;4.25;2.95;;;;;;;17.11;77.1543;95067.8;;;;
2020/07/25 03:32:34;;;;;;;3.4;3.1;;;;;;;17.09;77.43359;95075.45;;;;
2020/07/25 03:33:34;;;;;;;3.4;3.1;;;;;;;17.09;77.43359;95075.45;;;;
2020/07/25 03:34:35;;;;;;;3.4;3.1;;;;;;;17.09;77.43359;95075.45;;;;
2020/07/25 03:35:35;;;;;;;3.4;3.1;;;;;;;17.09;77.43359;95075.45;;;;
2020/07/25 03:36:36;;;;;;;3.4;3.1;;;;;;;17.09;77.43359;95075.45;;;;
2020/07/25 03:37:36;;;;;;;3.4;3.1;;;;;;;17.09;77.43359;95075.45;;;;
2020/07/25 03:38:37;;;;;;;3.4;3.1;;;;;;;17.09;77.43359;95075.45;;;;
2020/07/25 03:39:37;;;;;;;3.4;3.1;;;;;;;17.09;77.43359;95075.45;;;;
2020/07/25 03:40:38;;;;;;;3.4;3.1;;;;;;;17.09;77.43359;95075.45;;;;
2020/07/25 03:41:38;;;;;;;3.4;3.1;;;;;;;17.09;77.43359;95075.45;;;;
2020/07/25 03:42:38;;;;;;;3.4;3.1;;;;;;;17.09;77.43359;95075.45;;;;
2020/07/25 03:43:39;;;;;;;3.65;2.9;;;;;;;17.13;77.72363;95077.89;;;;
2020/07/25 03:44:39;;;;;;;3.65;2.9;;;;;;;17.13;77.72363;95077.89;;;;
2020/07/25 03:45:40;;;;;;;3.65;2.9;;;;;;;17.13;77.72363;95077.89;;;;
2020/07/25 03:46:40;;;;;;;3.65;2.9;;;;;;;17.13;77.72363;95077.89;;;;
2020/07/25 03:47:41;;;;;;;3.65;2.9;;;;;;;17.13;77.72363;95077.89;;;;
2020/07/25 03:48:41;;;;;;;3.65;2.9;;;;;;;17.13;77.72363;95077.89;;;;
2020/07/25 03:49:42;;;;;;;3.65;2.9;;;;;;;17.13;77.72363;95077.89;;;;
2020/07/25 03:50:42;;;;;;;3.65;2.9;;;;;;;17.13;77.72363;95077.89;;;;
2020/07/25 03:51:43;;;;;;;3.65;2.9;;;;;;;17.13;77.72363;95077.89;;;;
2020/07/25 03:52:43;;;;;;;3.65;2.9;;;;;;;17.13;77.72363;95077.89;;;;
2020/07/25 03:53:44;;;;;;;3.7;3;;;;;;;17.11;77.71875;95085.12;;;;
2020/07/25 03:54:44;;;;;;;3.7;3;;;;;;;17.11;77.71875;95085.12;;;;
2020/07/25 03:55:45;;;;;;;3.7;3;;;;;;;17.11;77.71875;95085.12;;;;
2020/07/25 03:56:45;;;;;;;3.7;3;;;;;;;17.11;77.71875;95085.12;;;;
2020/07/25 03:57:46;;;;;;;3.7;3;;;;;;;17.11;77.71875;95085.12;;;;
2020/07/25 03:58:46;;;;;;;3.7;3;;;;;;;17.11;77.71875;95085.12;;;;
2020/07/25 03:59:47;;;;;;;3.7;3;;;;;;;17.11;77.71875;95085.12;;;;
2020/07/25 04:00:47;;;;;;;3.7;3;;;;;;;17.11;77.71875;95085.12;;;;
2020/07/25 04:01:48;;;;;;;3.7;3;;;;;;;17.11;77.71875;95085.12;;;;
2020/07/25 04:02:48;;;;;;;3.7;3;;;;;;;17.11;77.71875;95085.12;;;;
2020/07/25 04:03:49;;;;;;;3.7;3;;;;;;;17.11;77.71875;95085.12;;;;
2020/07/25 04:04:49;;;;;;;3.4;3.05;;;;;;;17.14;78.06152;95089.5;;;;
2020/07/25 04:05:50;;;;;;;3.4;3.05;;;;;;;17.14;78.06152;95089.5;;;;
2020/07/25 04:06:50;;;;;;;3.4;3.05;;;;;;;17.14;78.06152;95089.5;;;;
2020/07/25 04:07:51;;;;;;;3.4;3.05;;;;;;;17.14;78.06152;95089.5;;;;
2020/07/25 04:08:51;;;;;;;3.4;3.05;;;;;;;17.14;78.06152;95089.5;;;;
2020/07/25 04:09:52;;;;;;;3.4;3.05;;;;;;;17.14;78.06152;95089.5;;;;
2020/07/25 04:10:52;;;;;;;3.4;3.05;;;;;;;17.14;78.06152;95089.5;;;;
2020/07/25 04:11:53;;;;;;;3.4;3.05;;;;;;;17.14;78.06152;95089.5;;;;
2020/07/25 04:12:53;;;;;;;3.4;3.05;;;;;;;17.14;78.06152;95089.5;;;;
2020/07/25 04:13:54;;;;;;;3.4;3.05;;;;;;;17.14;78.06152;95089.5;;;;
2020/07/25 04:14:54;;;;;;;3.5;2.9;;;;;;;17.13;78.13574;95088.39;;;;
2020/07/25 04:15:55;;;;;;;3.5;2.9;;;;;;;17.13;78.13574;95088.39;;;;
2020/07/25 04:16:55;;;;;;;3.5;2.9;;;;;;;17.13;78.13574;95088.39;;;;
2020/07/25 04:17:56;;;;;;;3.5;2.9;;;;;;;17.13;78.13574;95088.39;;;;
2020/07/25 04:18:56;;;;;;;3.5;2.9;;;;;;;17.13;78.13574;95088.39;;;;
2020/07/25 04:19:57;;;;;;;3.5;2.9;;;;;;;17.13;78.13574;95088.39;;;;
2020/07/25 04:20:57;;;;;;;3.5;2.9;;;;;;;17.13;78.13574;95088.39;;;;
2020/07/25 04:21:58;;;;;;;3.5;2.9;;;;;;;17.13;78.13574;95088.39;;;;
2020/07/25 04:22:58;;;;;;;3.5;2.9;;;;;;;17.13;78.13574;95088.39;;;;
2020/07/25 04:23:59;;;;;;;3.5;2.9;;;;;;;17.13;78.13574;95088.39;;;;
2020/07/25 04:24:59;;;;;;;3.5;2.9;;;;;;;17.13;78.13574;95088.39;;;;
2020/07/25 04:26:00;;;;;;;3.6;3.25;;;;;;;17.17;78.51172;95086.19;;;;
2020/07/25 04:27:00;;;;;;;3.6;3.25;;;;;;;17.17;78.51172;95086.19;;;;
2020/07/25 04:28:01;;;;;;;3.6;3.25;;;;;;;17.17;78.51172;95086.19;;;;
2020/07/25 04:29:01;;;;;;;3.6;3.25;;;;;;;17.17;78.51172;95086.19;;;;
2020/07/25 04:30:02;;;;;;;3.6;3.25;;;;;;;17.17;78.51172;95086.19;;;;
2020/07/25 04:31:02;;;;;;;3.6;3.25;;;;;;;17.17;78.51172;95086.19;;;;
2020/07/25 04:32:03;;;;;;;3.6;3.25;;;;;;;17.17;78.51172;95086.19;;;;
2020/07/25 04:33:03;;;;;;;3.6;3.25;;;;;;;17.17;78.51172;95086.19;;;;
2020/07/25 04:34:04;;;;;;;3.6;3.25;;;;;;;17.17;78.51172;95086.19;;;;
2020/07/25 04:35:04;;;;;;;3.6;3.25;;;;;;;17.17;78.51172;95086.19;;;;
2020/07/25 04:36:05;;;;;;;3.85;3.05;;;;;;;17.2;78.57031;95081.94;;;;
2020/07/25 04:37:05;;;;;;;3.85;3.05;;;;;;;17.2;78.57031;95081.94;;;;
2020/07/25 04:38:06;;;;;;;3.85;3.05;;;;;;;17.2;78.57031;95081.94;;;;
2020/07/25 04:39:06;;;;;;;3.85;3.05;;;;;;;17.2;78.57031;95081.94;;;;
2020/07/25 04:40:07;;;;;;;3.85;3.05;;;;;;;17.2;78.57031;95081.94;;;;
2020/07/25 04:41:07;;;;;;;3.85;3.05;;;;;;;17.2;78.57031;95081.94;;;;
2020/07/25 04:42:07;;;;;;;3.85;3.05;;;;;;;17.2;78.57031;95081.94;;;;
2020/07/25 04:43:08;;;;;;;3.85;3.05;;;;;;;17.2;78.57031;95081.94;;;;
2020/07/25 04:44:08;;;;;;;3.85;3.05;;;;;;;17.2;78.57031;95081.94;;;;
2020/07/25 04:45:09;;;;;;;3.85;3.05;;;;;;;17.2;78.57031;95081.94;;;;
2020/07/25 04:46:09;;;;;;;3.85;3.05;;;;;;;17.2;78.57031;95081.94;;;;
2020/07/25 04:47:10;;;;;;;3.3;2.95;;;;;;;17.35;78.6084;95091.54;;;;
2020/07/25 04:48:10;;;;;;;3.3;2.95;;;;;;;17.35;78.6084;95091.54;;;;
2020/07/25 04:49:11;;;;;;;3.3;2.95;;;;;;;17.35;78.6084;95091.54;;;;
2020/07/25 04:50:11;;;;;;;3.3;2.95;;;;;;;17.35;78.6084;95091.54;;;;
2020/07/25 04:51:12;;;;;;;3.3;2.95;;;;;;;17.35;78.6084;95091.54;;;;
2020/07/25 04:52:12;;;;;;;3.3;2.95;;;;;;;17.35;78.6084;95091.54;;;;
2020/07/25 04:53:13;;;;;;;3.3;2.95;;;;;;;17.35;78.6084;95091.54;;;;
2020/07/25 04:54:13;;;;;;;3.3;2.95;;;;;;;17.35;78.6084;95091.54;;;;
2020/07/25 04:55:14;;;;;;;3.3;2.95;;;;;;;17.35;78.6084;95091.54;;;;
2020/07/25 04:56:14;;;;;;;3.3;2.95;;;;;;;17.35;78.6084;95091.54;;;;
2020/07/25 04:57:15;;;;;;;3.4;2.9;;;;;;;17.49;78.45801;95086.69;;;;
2020/07/25 04:58:15;;;;;;;3.4;2.9;;;;;;;17.49;78.45801;95086.69;;;;
2020/07/25 04:59:16;;;;;;;3.4;2.9;;;;;;;17.49;78.45801;95086.69;;;;
2020/07/25 05:00:17;;;;;;;3.4;2.9;;;;;;;17.49;78.45801;95086.69;;;;
2020/07/25 05:01:17;;;;;;;3.4;2.9;;;;;;;17.49;78.45801;95086.69;;;;
2020/07/25 05:02:18;;;;;;;3.4;2.9;;;;;;;17.49;78.45801;95086.69;;;;
2020/07/25 05:03:18;;;;;;;3.4;2.9;;;;;;;17.49;78.45801;95086.69;;;;
2020/07/25 05:04:19;;;;;;;3.4;2.9;;;;;;;17.49;78.45801;95086.69;;;;
2020/07/25 05:05:19;;;;;;;3.4;2.9;;;;;;;17.49;78.45801;95086.69;;;;
2020/07/25 05:06:19;;;;;;;3.4;2.9;;;;;;;17.49;78.45801;95086.69;;;;
2020/07/25 05:07:20;;;;;;;3.4;2.9;;;;;;;17.49;78.45801;95086.69;;;;
2020/07/25 05:08:20;;;;;;;3.35;2.95;;;;;;;17.79;78.18652;95102.31;;;;
2020/07/25 05:09:21;;;;;;;3.35;2.95;;;;;;;17.79;78.18652;95102.31;;;;
2020/07/25 05:10:21;;;;;;;3.35;2.95;;;;;;;17.79;78.18652;95102.31;;;;
2020/07/25 05:11:22;;;;;;;3.35;2.95;;;;;;;17.79;78.18652;95102.31;;;;
2020/07/25 05:12:22;;;;;;;3.35;2.95;;;;;;;17.79;78.18652;95102.31;;;;
2020/07/25 05:13:23;;;;;;;3.35;2.95;;;;;;;17.79;78.18652;95102.31;;;;
2020/07/25 05:14:23;;;;;;;3.35;2.95;;;;;;;17.79;78.18652;95102.31;;;;
2020/07/25 05:15:24;;;;;;;3.35;2.95;;;;;;;17.79;78.18652;95102.31;;;;
2020/07/25 05:16:24;;;;;;;3.35;2.95;;;;;;;17.79;78.18652;95102.31;;;;
2020/07/25 05:17:25;;;;;;;3.35;2.95;;;;;;;17.79;78.18652;95102.31;;;;
2020/07/25 05:18:26;;;;;;;3.15;2.95;;;;;;;18.1;77.6748;95113.39;;;;
2020/07/25 05:19:26;;;;;;;3.15;2.95;;;;;;;18.1;77.6748;95113.39;;;;
2020/07/25 05:20:27;;;;;;;3.15;2.95;;;;;;;18.1;77.6748;95113.39;;;;
2020/07/25 05:21:27;;;;;;;3.15;2.95;;;;;;;18.1;77.6748;95113.39;;;;
2020/07/25 05:22:28;;;;;;;3.15;2.95;;;;;;;18.1;77.6748;95113.39;;;;
2020/07/25 05:23:28;;;;;;;3.15;2.95;;;;;;;18.1;77.6748;95113.39;;;;
2020/07/25 05:24:29;;;;;;;3.15;2.95;;;;;;;18.1;77.6748;95113.39;;;;
2020/07/25 05:25:29;;;;;;;3.15;2.95;;;;;;;18.1;77.6748;95113.39;;;;
2020/07/25 05:26:30;;;;;;;3.15;2.95;;;;;;;18.1;77.6748;95113.39;;;;
2020/07/25 05:27:30;;;;;;;3.15;2.95;;;;;;;18.1;77.6748;95113.39;;;;
2020/07/25 05:28:31;;;;;;;3.15;2.95;;;;;;;18.1;77.6748;95113.39;;;;
2020/07/25 05:29:31;;;;;;;3.8;2.9;;;;;;;18.42;77.22949;95124.22;;;;
2020/07/25 05:30:32;;;;;;;3.8;2.9;;;;;;;18.42;77.22949;95124.22;;;;
2020/07/25 05:31:32;;;;;;;3.8;2.9;;;;;;;18.42;77.22949;95124.22;;;;
2020/07/25 05:32:33;;;;;;;3.8;2.9;;;;;;;18.42;77.22949;95124.22;;;;
2020/07/25 05:33:33;;;;;;;3.8;2.9;;;;;;;18.42;77.22949;95124.22;;;;
2020/07/25 05:34:34;;;;;;;3.8;2.9;;;;;;;18.42;77.22949;95124.22;;;;
2020/07/25 05:35:34;;;;;;;3.8;2.9;;;;;;;18.42;77.22949;95124.22;;;;
2020/07/25 05:36:35;;;;;;;3.8;2.9;;;;;;;18.42;77.22949;95124.22;;;;
2020/07/25 05:37:35;;;;;;;3.8;2.9;;;;;;;18.42;77.22949;95124.22;;;;
2020/07/25 05:38:36;;;;;;;3.8;2.9;;;;;;;18.42;77.22949;95124.22;;;;
2020/07/25 05:39:36;;;;;;;2.95;2.75;;;;;;;18.63;76.99512;95122.35;;;;
2020/07/25 05:40:37;;;;;;;2.95;2.75;;;;;;;18.63;76.99512;95122.35;;;;
2020/07/25 05:41:37;;;;;;;2.95;2.75;;;;;;;18.63;76.99512;95122.35;;;;
2020/07/25 05:42:38;;;;;;;2.95;2.75;;;;;;;18.63;76.99512;95122.35;;;;
2020/07/25 05:43:38;;;;;;;2.95;2.75;;;;;;;18.63;76.99512;95122.35;;;;
2020/07/25 05:44:39;;;;;;;2.95;2.75;;;;;;;18.63;76.99512;95122.35;;;;
2020/07/25 05:45:41;;;;;;;2.95;2.75;;;;;;;18.63;76.99512;95122.35;;;;
2020/07/25 05:46:42;;;;;;;2.95;2.75;;;;;;;18.63;76.99512;95122.35;;;;
2020/07/25 05:47:42;;;;;;;2.95;2.75;;;;;;;18.63;76.99512;95122.35;;;;
2020/07/25 05:48:43;;;;;;;2.95;2.75;;;;;;;18.63;76.99512;95122.35;;;;
2020/07/25 05:49:43;;;;;;;2.95;2.75;;;;;;;18.63;76.99512;95122.35;;;;
2020/07/25 05:50:44;;;;;;;3.2;2.9;;;;;;;18.99;76.40332;95126.86;;;;